Time;durP1;ratioP1;P1;durP2;ratioP2;P2;SDS_P1;SDS_P2;PMS_P1;PMS_P2;Temp;Humidity;BMP_temperature;BMP_pressure;BME280_temperature;BME280_humidity;BME280_pressure;Samples;Min_cycle;Max_cycle;Signal;HPM_P1;HPM_P2
2021/10/23 00:01:24;;;;;;;2.20;1.55;;;;;;;;;;4919798;29;20053;-94
2021/10/23 00:03:50;;;;;;;4.70;2.80;;;;;;;;;;4919266;29;20485;-94
2021/10/23 00:06:16;;;;;;;3.20;2.00;;;;;;;;;;4918981;29;20032;-94
2021/10/23 00:08:42;;;;;;;2.08;1.20;;;;;;;;;;4899331;29;20080;-94
2021/10/23 00:11:08;;;;;;;1.92;1.05;;;;;;;;;;4900904;29;20028;-94
2021/10/23 00:13:34;;;;;;;3.17;2.05;;;;;;;;;;4917105;29;20533;-92
2021/10/23 00:16:27;;;;;;;1.88;1.38;;;;;;;;;;4911672;29;20032;-95
2021/10/23 00:18:53;;;;;;;2.58;1.60;;;;;;;;;;4917357;29;20048;-95
2021/10/23 00:21:19;;;;;;;2.78;2.47;;;;;;;;;;4900767;29;20493;-94
2021/10/23 00:23:45;;;;;;;1.10;1.00;;;;;;;;;;4902241;29;20079;-95
2021/10/23 00:26:11;;;;;;;3.28;1.10;;;;;;;;;;4901994;29;20115;-95
2021/10/23 00:28:38;;;;;;;3.00;0.95;;;;;;;;;;4895802;29;20064;-94
2021/10/23 00:31:04;;;;;;;3.33;1.00;;;;;;;;;;4902455;29;20055;-94
2021/10/23 00:33:31;;;;;;;1.42;1.20;;;;;;;;;;4918623;29;20124;-95
2021/10/23 00:35:57;;;;;;;5.15;1.30;;;;;;;;;;4919109;29;20033;-93
2021/10/23 00:38:23;;;;;;;1.77;1.30;;;;;;;;;;4919030;29;20028;-95
2021/10/23 00:40:49;;;;;;;2.72;1.52;;;;;;;;;;4918047;29;20028;-95
2021/10/23 00:43:15;;;;;;;2.33;1.25;;;;;;;;;;4918998;29;20032;-95
2021/10/23 00:45:41;;;;;;;3.08;1.45;;;;;;;;;;4902371;29;20038;-94
2021/10/23 00:48:07;;;;;;;2.10;1.35;;;;;;;;;;4902165;29;20036;-95
2021/10/23 00:50:33;;;;;;;2.35;1.08;;;;;;;;;;4912615;29;20045;-94
2021/10/23 00:52:59;;;;;;;2.85;1.55;;;;;;;;;;4902285;29;20028;-94
2021/10/23 00:55:25;;;;;;;2.33;1.33;;;;;;;;;;4902576;29;20122;-94
2021/10/23 00:57:51;;;;;;;1.75;1.42;;;;;;;;;;4901726;29;20058;-94
2021/10/23 01:00:17;;;;;;;4.05;2.13;;;;;;;;;;4918682;29;20079;-94
2021/10/23 01:02:43;;;;;;;3.78;2.70;;;;;;;;;;4919103;29;20095;-96
2021/10/23 01:05:10;;;;;;;3.13;2.72;;;;;;;;;;4901353;29;20028;-95
2021/10/23 01:07:37;;;;;;;1.27;1.20;;;;;;;;;;4917611;29;20043;-94
2021/10/23 01:10:07;;;;;;;1.92;1.65;;;;;;;;;;4900913;29;20311;-93
2021/10/23 01:12:34;;;;;;;3.33;1.77;;;;;;;;;;4919828;29;20028;-93
2021/10/23 01:15:00;;;;;;;2.55;1.38;;;;;;;;;;4901287;29;20032;-93
2021/10/23 01:17:26;;;;;;;4.93;1.88;;;;;;;;;;4900990;29;20035;-93
2021/10/23 01:19:53;;;;;;;4.65;1.63;;;;;;;;;;4918268;29;20024;-92
2021/10/23 01:22:28;;;;;;;2.25;1.15;;;;;;;;;;4917724;29;20036;-93
2021/10/23 01:24:55;;;;;;;3.58;1.77;;;;;;;;;;4917995;29;20032;-94
2021/10/23 01:27:21;;;;;;;4.87;2.83;;;;;;;;;;4915877;29;20032;-94
2021/10/23 01:29:47;;;;;;;2.45;1.40;;;;;;;;;;4900830;29;20651;-94
2021/10/23 01:32:13;;;;;;;7.30;1.63;;;;;;;;;;4901620;29;20027;-94
2021/10/23 01:34:39;;;;;;;2.05;1.40;;;;;;;;;;4900579;29;20510;-93
2021/10/23 01:37:05;;;;;;;2.65;1.80;;;;;;;;;;4917502;29;20024;-95
2021/10/23 01:39:33;;;;;;;1.77;1.08;;;;;;;;;;4920167;29;20092;-95
2021/10/23 01:41:59;;;;;;;2.22;1.30;;;;;;;;;;4917571;29;20035;-94
2021/10/23 01:44:30;;;;;;;1.75;1.08;;;;;;;;;;4904840;29;20074;-94
2021/10/23 01:46:57;;;;;;;4.85;1.35;;;;;;;;;;4904426;29;20107;-96
2021/10/23 01:49:23;;;;;;;1.73;1.08;;;;;;;;;;4920703;29;20044;-94
2021/10/23 01:51:49;;;;;;;1.80;1.27;;;;;;;;;;4892029;29;20080;-96
2021/10/23 01:54:15;;;;;;;1.20;1.02;;;;;;;;;;4909974;29;20103;-96
2021/10/23 01:56:42;;;;;;;0.95;0.90;;;;;;;;;;4919868;29;20036;-95
2021/10/23 01:59:09;;;;;;;1.42;1.25;;;;;;;;;;4903643;29;20043;-93
2021/10/23 02:01:35;;;;;;;2.15;1.27;;;;;;;;;;4897503;29;20123;-94
2021/10/23 02:04:01;;;;;;;1.45;1.35;;;;;;;;;;4912158;29;20032;-94
2021/10/23 02:06:27;;;;;;;2.28;1.20;;;;;;;;;;4915975;29;20120;-94
2021/10/23 02:08:53;;;;;;;1.80;1.63;;;;;;;;;;4916295;29;20092;-94
2021/10/23 02:11:20;;;;;;;1.40;1.30;;;;;;;;;;4900420;29;20123;-93
2021/10/23 02:13:46;;;;;;;4.00;2.00;;;;;;;;;;4917493;29;20429;-93
2021/10/23 02:16:12;;;;;;;6.82;1.85;;;;;;;;;;4916820;29;20028;-93
2021/10/23 02:18:39;;;;;;;1.77;1.30;;;;;;;;;;4888855;29;20041;-93
2021/10/23 02:21:06;;;;;;;1.80;1.67;;;;;;;;;;4884823;29;20033;-94
2021/10/23 02:23:32;;;;;;;2.33;1.55;;;;;;;;;;4900305;29;20032;-94
2021/10/23 02:25:58;;;;;;;2.97;1.63;;;;;;;;;;4916156;29;20091;-94
2021/10/23 02:28:24;;;;;;;3.03;1.20;;;;;;;;;;4901844;29;20115;-93
2021/10/23 02:30:51;;;;;;;1.60;1.50;;;;;;;;;;4915444;29;20135;-93
2021/10/23 02:33:17;;;;;;;1.92;1.25;;;;;;;;;;4899735;29;20032;-94
2021/10/23 02:35:44;;;;;;;1.40;1.30;;;;;;;;;;4916684;29;20110;-93
2021/10/23 02:38:13;;;;;;;1.35;0.98;;;;;;;;;;4916914;29;20028;-93
2021/10/23 02:40:39;;;;;;;1.40;0.93;;;;;;;;;;4916850;29;20058;-93
2021/10/23 02:43:06;;;;;;;3.58;1.50;;;;;;;;;;4915934;29;20130;-95
2021/10/23 02:45:32;;;;;;;3.90;1.90;;;;;;;;;;4916375;29;20413;-94
2021/10/23 02:47:58;;;;;;;2.50;1.30;;;;;;;;;;4916366;29;20529;-94
2021/10/23 02:50:24;;;;;;;1.85;1.30;;;;;;;;;;4915334;29;20095;-94
2021/10/23 02:52:50;;;;;;;1.00;0.90;;;;;;;;;;4901700;29;20072;-93
2021/10/23 02:55:16;;;;;;;1.83;1.30;;;;;;;;;;4916981;29;20036;-93
2021/10/23 02:57:43;;;;;;;1.08;1.02;;;;;;;;;;4916472;29;20024;-94
2021/10/23 03:00:09;;;;;;;2.80;1.58;;;;;;;;;;4899561;29;20126;-94
2021/10/23 03:02:36;;;;;;;5.63;1.77;;;;;;;;;;4926421;29;20020;-93
2021/10/23 03:05:03;;;;;;;3.97;2.87;;;;;;;;;;4918607;29;20051;-95
2021/10/23 03:07:30;;;;;;;5.28;1.58;;;;;;;;;;4917739;29;20072;-94
2021/10/23 03:09:56;;;;;;;1.38;1.13;;;;;;;;;;4919433;29;20048;-93
2021/10/23 03:12:26;;;;;;;3.42;1.00;;;;;;;;;;4920454;29;20052;-96
2021/10/23 03:14:53;;;;;;;1.90;1.23;;;;;;;;;;4923727;29;20040;-96
2021/10/23 03:17:19;;;;;;;2.35;1.42;;;;;;;;;;4922435;29;20060;-96
2021/10/23 03:19:45;;;;;;;1.70;1.48;;;;;;;;;;4910116;29;20485;-96
2021/10/23 03:22:11;;;;;;;4.70;1.40;;;;;;;;;;4924118;29;20118;-95
2021/10/23 03:24:39;;;;;;;2.15;1.45;;;;;;;;;;4924017;29;20083;-96
2021/10/23 03:27:05;;;;;;;1.50;1.27;;;;;;;;;;4922990;29;20044;-95
2021/10/23 03:29:32;;;;;;;2.38;1.30;;;;;;;;;;4922941;29;20044;-95
2021/10/23 03:32:00;;;;;;;2.13;1.52;;;;;;;;;;4906900;29;20028;-96
2021/10/23 03:34:27;;;;;;;;;;;8.20;58.10;;;;;;4923645;29;20076;-95
2021/10/23 03:36:53;;;;;;;3.28;1.58;;;;;;;;;;4907096;29;19919;-95
2021/10/23 03:39:22;;;;;;;2.33;1.52;;;;;;;;;;4923168;29;20069;-96
2021/10/23 03:41:49;;;;;;;2.33;1.13;;;;;;;;;;4906613;29;20113;-95
2021/10/23 03:44:16;;;;;;;3.55;1.38;;;;;;;;;;4906097;29;20059;-95
2021/10/23 03:46:42;;;;;;;2.00;1.40;;;;;;;;;;4924280;29;20040;-96
2021/10/23 03:49:08;;;;;;;2.42;1.85;;;;;;;;;;4923218;29;20040;-95
2021/10/23 03:51:34;;;;;;;1.40;1.30;;;;;;;;;;4921134;29;20056;-96
2021/10/23 03:54:00;;;;;;;3.55;1.50;;;;;;;;;;4905111;29;20489;-95
2021/10/23 03:56:26;;;;;;;4.97;1.20;;;;;;;;;;4903155;29;20079;-93
2021/10/23 03:58:52;;;;;;;7.53;1.25;;;;;;;;;;4919687;29;20055;-95
2021/10/23 04:01:18;;;;;;;2.78;2.05;;;;;;;;;;4903444;29;20043;-94
2021/10/23 04:03:44;;;;;;;2.10;1.83;;;;;;;;;;4912434;29;20032;-94
2021/10/23 04:06:10;;;;;;;1.52;1.30;;;;;;;;;;4902783;29;20032;-95
2021/10/23 04:08:43;;;;;;;2.10;1.88;;;;;;;;;;4923610;29;20101;-96
2021/10/23 04:11:10;;;;;;;6.65;2.20;;;;;;;;;;4898137;29;20072;-94
2021/10/23 04:13:36;;;;;;;2.65;1.63;;;;;;;;;;4917377;29;20032;-94
2021/10/23 04:16:02;;;;;;;2.38;1.80;;;;;;;;;;4918328;29;20039;-94
2021/10/23 04:18:28;;;;;;;2.65;1.70;;;;;;;;;;4917842;29;20557;-94
2021/10/23 04:20:54;;;;;;;3.35;1.63;;;;;;;;;;4918095;29;20051;-94
2021/10/23 04:23:20;;;;;;;4.85;1.73;;;;;;;;;;4902561;29;20464;-94
2021/10/23 04:25:46;;;;;;;4.90;1.80;;;;;;;;;;4918164;29;20119;-95
2021/10/23 04:28:12;;;;;;;4.97;2.85;;;;;;;;;;4918738;29;20040;-94
2021/10/23 04:30:38;;;;;;;2.75;1.95;;;;;;;;;;4918985;29;20048;-94
2021/10/23 04:33:04;;;;;;;1.50;1.15;;;;;;;;;;4919425;29;20035;-94
2021/10/23 04:35:30;;;;;;;2.40;1.45;;;;;;;;;;4918749;29;20055;-94
2021/10/23 04:37:56;;;;;;;1.70;1.20;;;;;;;;;;4917884;29;20035;-93
2021/10/23 04:40:22;;;;;;;1.23;1.13;;;;;;;;;;4918555;29;20036;-93
2021/10/23 04:42:48;;;;;;;2.88;1.30;;;;;;;;;;4918365;29;20021;-93
2021/10/23 04:45:14;;;;;;;1.38;0.98;;;;;;;;;;4918479;29;20176;-94
2021/10/23 04:47:40;;;;;;;2.15;0.90;;;;;;;;;;4918612;29;20028;-95
2021/10/23 04:50:07;;;;;;;0.98;0.85;;;;;;;;;;4901632;29;20052;-95
2021/10/23 04:52:33;;;;;;;6.18;1.70;;;;;;;;;;4908987;29;20048;-94
2021/10/23 04:54:59;;;;;;;4.90;2.00;;;;;;;;;;4907014;29;20072;-94
2021/10/23 04:57:25;;;;;;;5.10;2.10;;;;;;;;;;4918283;29;20453;-94
2021/10/23 04:59:51;;;;;;;1.85;1.30;;;;;;;;;;4918486;29;20111;-94
2021/10/23 05:02:17;;;;;;;3.42;1.30;;;;;;;;;;4901612;29;20039;-92
2021/10/23 05:04:43;;;;;;;3.90;1.35;;;;;;;;;;4901775;29;20032;-94
2021/10/23 05:07:09;;;;;;;2.15;1.35;;;;;;;;;;4918126;29;20581;-94
2021/10/23 05:09:35;;;;;;;11.05;3.20;;;;;;;;;;4918036;29;20048;-95
2021/10/23 05:12:01;;;;;;;5.43;1.85;;;;;;;;;;4917830;29;20024;-94
2021/10/23 05:14:27;;;;;;;1.45;1.30;;;;;;;;;;4918407;29;20036;-95
2021/10/23 05:16:53;;;;;;;2.65;1.45;;;;;;;;;;4918500;29;20044;-95
2021/10/23 05:19:19;;;;;;;3.90;2.42;;;;;;;;;;4916713;29;20038;-94
2021/10/23 05:21:45;;;;;;;1.55;1.45;;;;;;;;;;4916576;29;20482;-94
2021/10/23 05:24:11;;;;;;;5.10;1.80;;;;;;;;;;4916672;29;20039;-94
2021/10/23 05:26:37;;;;;;;3.13;1.27;;;;;;;;;;4916512;29;20079;-94
2021/10/23 05:29:03;;;;;;;2.22;1.45;;;;;;;;;;4916958;29;20119;-94
2021/10/23 05:31:29;;;;;;;1.83;1.55;;;;;;;;;;4914957;29;20040;-94
2021/10/23 05:33:55;;;;;;;4.93;2.55;;;;;;;;;;4909597;29;20031;-95
2021/10/23 05:36:22;;;;;;;2.00;1.60;;;;;;;;;;4903544;29;20036;-96
2021/10/23 05:38:48;;;;;;;;;;;7.40;59.00;;;;;;4924602;29;20031;-95
2021/10/23 05:41:14;;;;;;;2.70;1.15;;;;;;;;;;4919932;29;19967;-94
2021/10/23 05:43:40;;;;;;;3.10;1.65;;;;;;;;;;4919177;29;20072;-94
2021/10/23 05:46:06;;;;;;;0.82;0.82;;;;;;;;;;4918937;29;20032;-96
2021/10/23 05:48:32;;;;;;;6.50;1.40;;;;;;;;;;4918644;29;20118;-95
2021/10/23 05:50:58;;;;;;;1.00;0.70;;;;;;;;;;4917474;29;20059;-95
2021/10/23 05:53:25;;;;;;;2.10;1.30;;;;;;;;;;4911267;29;20127;-95
2021/10/23 05:55:51;;;;;;;5.40;2.40;;;;;;;;;;4901817;29;20028;-96
2021/10/23 05:58:17;;;;;;;1.58;1.17;;;;;;;;;;4902837;29;20028;-94
2021/10/23 06:00:49;;;;;;;4.43;1.50;;;;;;;;;;4891134;29;20055;-95
2021/10/23 06:03:20;;;;;;;1.85;1.05;;;;;;;;;;4908793;29;20020;-94
2021/10/23 06:05:46;;;;;;;3.83;1.65;;;;;;;;;;4907971;29;20038;-94
2021/10/23 06:08:14;;;;;;;3.45;1.65;;;;;;;;;;4910867;29;20808;-95
2021/10/23 06:10:42;;;;;;;3.50;2.30;;;;;;;;;;4913465;29;20501;-95
2021/10/23 06:13:08;;;;;;;2.00;1.05;;;;;;;;;;4906026;29;20134;-95
2021/10/23 06:15:35;;;;;;;5.10;2.53;;;;;;;;;;4922315;29;20028;-95
2021/10/23 06:18:03;;;;;;;2.10;1.70;;;;;;;;;;4922175;29;20276;-95
2021/10/23 06:20:30;;;;;;;7.72;2.80;;;;;;;;;;4905547;29;20627;-94
2021/10/23 06:22:56;;;;;;;6.75;2.55;;;;;;;;;;4922136;29;20039;-95
2021/10/23 06:25:24;;;;;;;2.50;1.88;;;;;;;;;;4920364;29;20059;-95
2021/10/23 06:27:50;;;;;;;9.93;2.03;;;;;;;;;;4912265;29;20104;-95
2021/10/23 06:30:18;;;;;;;8.77;2.47;;;;;;;;;;4922073;29;20087;-95
2021/10/23 06:32:50;;;;;;;6.10;2.83;;;;;;;;;;4921158;29;20147;-96
2021/10/23 06:35:16;;;;;;;1.77;1.30;;;;;;;;;;4919674;29;20058;-95
2021/10/23 06:37:43;;;;;;;5.05;2.15;;;;;;;;;;4903118;29;20032;-96
2021/10/23 06:40:11;;;;;;;4.55;2.22;;;;;;;;;;4917905;29;20034;-94
2021/10/23 06:42:39;;;;;;;3.58;2.00;;;;;;;;;;4917989;29;20043;-95
2021/10/23 06:45:05;;;;;;;4.20;1.92;;;;;;;;;;4928411;29;20038;-95
2021/10/23 06:47:31;;;;;;;5.53;2.10;;;;;;;;;;4904251;29;20020;-95
2021/10/23 06:49:58;;;;;;;5.80;1.90;;;;;;;;;;4931866;29;20095;-95
2021/10/23 06:52:25;;;;;;;4.47;1.90;;;;;;;;;;4909942;29;20118;-95
2021/10/23 06:54:51;;;;;;;7.32;2.50;;;;;;;;;;4933070;29;20040;-96
2021/10/23 06:57:17;;;;;;;6.30;2.22;;;;;;;;;;4911689;29;20035;-94
2021/10/23 06:59:43;;;;;;;4.85;2.67;;;;;;;;;;4915911;29;20121;-94
2021/10/23 07:02:10;;;;;;;6.55;3.65;;;;;;;;;;4931801;29;20031;-95
2021/10/23 07:04:36;;;;;;;7.28;3.58;;;;;;;;;;4900764;29;20044;-95
2021/10/23 07:07:02;;;;;;;12.60;7.25;;;;;;;;;;4899876;29;20032;-94
2021/10/23 07:09:28;;;;;;;18.10;8.77;;;;;;;;;;4916675;29;20036;-95
2021/10/23 07:11:54;;;;;;;10.93;4.63;;;;;;;;;;4900185;29;20035;-95
2021/10/23 07:14:20;;;;;;;13.90;5.85;;;;;;;;;;4931092;29;20119;-95
2021/10/23 07:16:47;;;;;;;11.15;4.70;;;;;;;;;;4899623;29;20031;-96
2021/10/23 07:19:13;;;;;;;16.17;5.67;;;;;;;;;;4928067;29;20039;-95
2021/10/23 07:21:39;;;;;;;5.18;3.25;;;;;;;;;;4907576;29;20082;-91
2021/10/23 07:24:05;;;;;;;4.57;2.83;;;;;;;;;;4912549;29;20043;-90
2021/10/23 07:26:31;;;;;;;3.78;2.75;;;;;;;;;;4913984;29;20033;-90
2021/10/23 07:28:57;;;;;;;7.57;3.35;;;;;;;;;;4913599;29;20032;-94
2021/10/23 07:31:24;;;;;;;8.10;2.72;;;;;;;;;;4892616;29;20039;-92
2021/10/23 07:33:50;;;;;;;6.53;2.20;;;;;;;;;;4910488;29;20498;-89
2021/10/23 07:36:19;;;;;;;7.57;3.28;;;;;;;;;;4915079;29;20055;-90
2021/10/23 07:38:46;;;;;;;10.65;4.22;;;;;;;;;;4919209;29;20024;-90
2021/10/23 07:41:13;;;;;;;13.07;3.50;;;;;;;;;;4911414;29;20040;-90
2021/10/23 07:43:39;;;;;;;5.43;3.65;;;;;;;;;;4903904;29;20526;-90
2021/10/23 07:46:05;;;;;;;6.53;3.28;;;;;;;;;;4906591;29;20040;-89
2021/10/23 07:48:34;;;;;;;4.65;2.67;;;;;;;;;;4908023;29;20508;-91
2021/10/23 07:51:00;;;;;;;6.30;2.80;;;;;;;;;;4911723;29;20055;-90
2021/10/23 07:53:26;;;;;;;6.95;3.70;;;;;;;;;;4905995;29;20024;-91
2021/10/23 07:55:52;;;;;;;5.47;3.42;;;;;;;;;;4911819;29;20062;-91
2021/10/23 07:58:18;;;;;;;10.02;3.38;;;;;;;;;;4912845;29;20386;-90
2021/10/23 08:00:44;;;;;;;4.40;2.63;;;;;;;;;;4909491;29;20032;-90
2021/10/23 08:03:10;;;;;;;5.35;2.92;;;;;;;;;;4912765;29;20031;-89
2021/10/23 08:05:37;;;;;;;5.95;2.63;;;;;;;;;;4910204;29;20123;-89
2021/10/23 08:08:04;;;;;;;3.40;2.13;;;;;;;;;;4908259;29;20039;-90
2021/10/23 08:10:31;;;;;;;6.35;2.50;;;;;;;;;;4914284;29;20044;-91
2021/10/23 08:12:57;;;;;;;3.00;2.40;;;;;;;;;;4913585;29;20039;-90
2021/10/23 08:15:25;;;;;;;3.65;2.13;;;;;;;;;;4905246;29;20096;-90
2021/10/23 08:17:51;;;;;;;8.85;2.65;;;;;;;;;;4919339;29;20036;-90
2021/10/23 08:20:17;;;;;;;5.45;3.83;;;;;;;;;;4916792;29;20540;-89
2021/10/23 08:22:44;;;;;;;6.55;3.10;;;;;;;;;;4906856;29;20031;-89
2021/10/23 08:25:11;;;;;;;7.60;3.78;;;;;;;;;;4913220;29;20434;-90
2021/10/23 08:27:37;;;;;;;8.93;2.92;;;;;;;;;;4898318;29;20469;-92
2021/10/23 08:30:04;;;;;;;6.23;2.77;;;;;;;;;;4905170;29;20108;-89
2021/10/23 08:32:30;;;;;;;2.67;2.28;;;;;;;;;;4916855;29;20123;-90
2021/10/23 08:34:56;;;;;;;5.47;2.30;;;;;;;;;;4900638;29;20040;-92
2021/10/23 08:37:23;;;;;;;4.28;2.40;;;;;;;;;;4917170;29;20497;-89
2021/10/23 08:39:49;;;;;;;4.55;2.35;;;;;;;;;;4910597;29;20021;-91
2021/10/23 08:42:15;;;;;;;6.32;1.98;;;;;;;;;;4916624;29;20024;-90
2021/10/23 08:44:42;;;;;;;3.95;2.13;;;;;;;;;;4909802;29;20032;-91
2021/10/23 08:47:09;;;;;;;6.07;1.75;;;;;;;;;;4900733;29;20039;-90
2021/10/23 08:49:36;;;;;;;7.18;2.55;;;;;;;;;;4916789;29;20040;-89
2021/10/23 08:52:03;;;;;;;3.92;2.05;;;;;;;;;;4909796;29;20036;-91
2021/10/23 08:54:30;;;;;;;4.43;1.95;;;;;;;;;;4896018;29;20040;-90
2021/10/23 08:56:56;;;;;;;7.13;2.78;;;;;;;;;;4916783;29;20032;-89
2021/10/23 08:59:22;;;;;;;6.43;1.85;;;;;;;;;;4928478;29;20038;-91
2021/10/23 09:01:48;;;;;;;6.75;2.20;;;;;;;;;;4908466;29;20039;-90
2021/10/23 09:04:14;;;;;;;2.92;2.38;;;;;;;;;;4910709;29;20079;-91
2021/10/23 09:06:40;;;;;;;8.02;1.67;;;;;;;;;;4912055;29;20035;-91
2021/10/23 09:09:07;;;;;;;2.72;1.35;;;;;;;;;;4913660;29;20116;-89
2021/10/23 09:11:43;;;;;;;2.63;1.90;;;;;;;;;;4900493;29;20051;-90
2021/10/23 09:14:31;;;;;;;10.65;2.08;;;;;;;;;;4897745;29;20084;-92
2021/10/23 09:17:03;;;;;;;3.88;2.15;;;;;;;;;;4914606;29;20032;-90
2021/10/23 09:19:46;;;;;;;4.35;1.58;;;;;;;;;;4898760;29;20039;-91
2021/10/23 09:22:22;;;;;;;2.40;1.67;;;;;;;;;;4911722;29;20031;-92
2021/10/23 09:24:48;;;;;;;2.13;1.58;;;;;;;;;;4898672;29;20037;-91
2021/10/23 09:27:15;;;;;;;3.47;1.85;;;;;;;;;;4906276;29;20036;-91
2021/10/23 09:29:41;;;;;;;5.50;1.98;;;;;;;;;;4916924;29;20514;-90
2021/10/23 09:32:14;;;;;;;4.07;1.48;;;;;;;;;;4918016;29;20056;-90
2021/10/23 09:34:40;;;;;;;4.18;1.92;;;;;;;;;;4900760;29;20503;-90
2021/10/23 09:37:07;;;;;;;5.10;2.65;;;;;;;;;;4906701;29;20068;-91
2021/10/23 09:39:34;;;;;;;8.88;1.75;;;;;;;;;;4914303;29;20039;-90
2021/10/23 09:42:08;;;;;;;7.45;2.13;;;;;;;;;;4917203;29;20111;-93
2021/10/23 09:44:34;;;;;;;3.85;1.65;;;;;;;;;;4913877;29;20115;-91
2021/10/23 09:47:01;;;;;;;4.78;1.67;;;;;;;;;;4919756;29;20028;-89
2021/10/23 09:49:27;;;;;;;4.10;2.25;;;;;;;;;;4932995;29;20040;-90
2021/10/23 09:52:02;;;;;;;3.22;0.95;;;;;;;;;;4915931;29;20137;-90
2021/10/23 09:54:29;;;;;;;19.80;1.90;;;;;;;;;;4912092;29;20107;-91
2021/10/23 09:56:55;;;;;;;3.75;2.08;;;;;;;;;;4900721;29;20028;-91
2021/10/23 09:59:28;;;;;;;2.92;1.58;;;;;;;;;;4899487;29;20024;-92
2021/10/23 10:01:57;;;;;;;5.03;1.35;;;;;;;;;;4911776;29;20040;-91
2021/10/23 10:04:24;;;;;;;2.17;1.48;;;;;;;;;;4915375;29;20027;-92
2021/10/23 10:06:51;;;;;;;4.35;1.75;;;;;;;;;;4909572;29;20032;-90
2021/10/23 10:09:18;;;;;;;1.25;0.60;;;;;;;;;;4899125;29;20039;-90
2021/10/23 10:11:47;;;;;;;2.95;1.48;;;;;;;;;;4902634;29;20072;-90
2021/10/23 10:14:14;;;;;;;6.43;1.42;;;;;;;;;;4914186;29;20168;-93
2021/10/23 10:16:45;;;;;;;2.08;1.08;;;;;;;;;;4914626;29;20079;-93
2021/10/23 10:19:13;;;;;;;2.03;1.65;;;;;;;;;;4909941;29;20028;-91
2021/10/23 10:21:39;;;;;;;9.20;1.52;;;;;;;;;;4913479;29;20028;-92
2021/10/23 10:24:14;;;;;;;2.42;2.00;;;;;;;;;;4904752;29;20036;-94
2021/10/23 10:26:41;;;;;;;3.60;1.50;;;;;;;;;;4899389;29;20082;-91
2021/10/23 10:29:07;;;;;;;6.82;1.60;;;;;;;;;;4915209;29;20035;-92
2021/10/23 10:31:53;;;;;;;4.10;2.03;;;;;;;;;;4911281;29;20438;-93
2021/10/23 10:34:40;;;;;;;3.97;1.35;;;;;;;;;;4900246;29;20296;-93
2021/10/23 10:37:12;;;;;;;;;;;;;;;;;;4911201;29;20032;-91
2021/10/23 10:39:53;;;;;;;3.97;1.95;;;;;;;;;;4892068;29;20022;-92
2021/10/23 10:45:46;;;;;;;2.55;1.42;;;;;;;;;;4895100;29;20059;-93
2021/10/23 10:48:34;;;;;;;2.50;1.10;;;;;;;;;;4897103;29;20029;-93
2021/10/23 10:51:14;;;;;;;4.70;1.75;;;;;;;;;;4893119;29;20105;-94
2021/10/23 10:53:49;;;;;;;5.25;1.45;;;;;;;;;;4898990;29;20059;-93
2021/10/23 10:56:16;;;;;;;5.05;1.88;;;;;;;;;;4903125;29;20040;-93
2021/10/23 10:58:45;;;;;;;;;;;17.60;45.40;;;;;;4892446;29;20036;-93
2021/10/23 11:01:22;;;;;;;4.13;1.45;;;;;;;;;;4892032;29;20436;-92
2021/10/23 11:03:48;;;;;;;2.85;1.48;;;;;;;;;;4892457;29;20040;-91
2021/10/23 11:06:35;;;;;;;3.72;1.17;;;;;;;;;;4895048;29;20048;-93
2021/10/23 11:09:09;;;;;;;3.05;1.75;;;;;;;;;;4877030;29;20825;-92
2021/10/23 11:11:44;;;;;;;2.40;1.70;;;;;;;;;;4897846;29;20040;-92
2021/10/23 11:14:34;;;;;;;6.35;1.75;;;18.30;43.90;;;;;;4894242;29;20505;-92
2021/10/23 11:17:04;;;;;;;9.57;1.95;;;;;;;;;;4895964;29;20044;-92
2021/10/23 11:19:36;;;;;;;5.32;1.73;;;;;;;;;;4913710;29;20032;-92
2021/10/23 11:22:03;;;;;;;7.80;2.63;;;;;;;;;;4898218;29;20434;-92
2021/10/23 11:24:29;;;;;;;;;;;18.00;43.10;;;;;;4915387;29;20031;-92
2021/10/23 11:26:56;;;;;;;2.60;1.85;;;;;;;;;;4894707;29;19907;-91
2021/10/23 11:29:27;;;;;;;3.55;1.80;;;;;;;;;;4897402;29;20040;-93
2021/10/23 11:31:54;;;;;;;3.72;1.98;;;;;;;;;;4901009;29;20074;-90
2021/10/23 11:34:23;;;;;;;3.97;1.50;;;;;;;;;;4885015;29;20438;-91
2021/10/23 11:37:06;;;;;;;3.65;1.35;;;;;;;;;;4912084;29;20134;-91
2021/10/23 11:39:35;;;;;;;4.20;1.80;;;;;;;;;;4902255;29;20028;-92
2021/10/23 11:45:21;;;;;;;3.90;1.73;;;;;;;;;;4919874;29;20062;-92
2021/10/23 11:47:48;;;;;;;3.40;1.38;;;;;;;;;;4903921;29;20036;-90
2021/10/23 11:50:25;;;;;;;2.33;1.63;;;;;;;;;;4918615;29;20059;-91
2021/10/23 11:52:59;;;;;;;2.10;1.23;;;;;;;;;;4913008;29;20020;-92
2021/10/23 11:55:28;;;;;;;6.40;1.55;;;;;;;;;;4910657;29;20124;-91
2021/10/23 11:57:55;;;;;;;5.50;1.60;;;;;;;;;;4908158;29;20094;-92
2021/10/23 12:00:21;;;;;;;6.70;2.13;;;;;;;;;;4918855;29;20057;-93
2021/10/23 12:02:50;;;;;;;6.63;1.63;;;;;;;;;;4918832;29;20040;-92
2021/10/23 12:05:19;;;;;;;4.72;2.00;;;;;;;;;;4899968;29;20032;-93
2021/10/23 12:07:45;;;;;;;3.42;1.70;;;;;;;;;;4918400;29;20100;-92
2021/10/23 12:10:11;;;;;;;2.53;1.45;;;;;;;;;;4901702;29;20035;-93
2021/10/23 12:12:37;;;;;;;2.50;1.67;;;;;;;;;;4907149;29;20058;-92
2021/10/23 12:15:17;;;;;;;7.77;2.70;;;;;;;;;;4905183;29;20043;-91
2021/10/23 12:17:43;;;;;;;3.58;2.10;;;;;;;;;;4918312;29;20346;-92
2021/10/23 12:20:15;;;;;;;6.00;2.75;;;;;;;;;;4917639;29;20028;-91
2021/10/23 12:22:42;;;;;;;2.47;1.35;;;;;;;;;;4918166;29;20028;-91
2021/10/23 12:25:10;;;;;;;1.55;1.33;;;;;;;;;;4918366;29;20040;-91
2021/10/23 12:27:37;;;;;;;2.35;1.45;;;;;;;;;;4918126;29;20045;-92
2021/10/23 12:30:02;;;;;;;3.15;1.70;;;;;;;;;;4901399;29;20505;-91
2021/10/23 12:32:40;;;;;;;2.67;1.33;;;;;;;;;;4918104;29;20045;-90
2021/10/23 12:35:25;;;;;;;7.93;3.75;;;;;;;;;;4901226;29;20055;-92
2021/10/23 12:37:52;;;;;;;3.75;2.42;;;;;;;;;;4898281;29;20037;-91
2021/10/23 12:40:28;;;;;;;7.80;2.22;;;;;;;;;;4914498;29;20059;-91
2021/10/23 12:42:58;;;;;;;2.75;1.50;;;;;;;;;;4916437;29;20036;-92
2021/10/23 12:45:26;;;;;;;2.60;1.48;;;;;;;;;;4913659;29;20028;-91
2021/10/23 12:47:52;;;;;;;;;;;16.80;47.30;;;;;;4903593;29;20123;-93
2021/10/23 12:50:27;;;;;;;5.78;1.92;;;;;;;;;;4900682;29;19987;-90
2021/10/23 12:52:54;;;;;;;8.65;2.85;;;;;;;;;;4924501;29;20031;-92
2021/10/23 12:55:21;;;;;;;4.97;2.55;;;;;;;;;;4923490;29;20079;-93
2021/10/23 12:57:47;;;;;;;3.08;1.50;;;;;;;;;;4924771;29;20505;-93
2021/10/23 13:00:14;;;;;;;3.88;1.85;;;;;;;;;;4910060;29;20083;-93
2021/10/23 13:02:41;;;;;;;5.45;1.83;;;;;;;;;;4897902;29;20040;-91
2021/10/23 13:05:07;;;;;;;5.85;1.75;;;;;;;;;;4911316;29;20035;-91
2021/10/23 13:07:33;;;;;;;6.90;1.98;;;;;;;;;;4910494;29;20043;-93
2021/10/23 13:10:00;;;;;;;5.90;1.35;;;;;;;;;;4910086;29;20040;-92
2021/10/23 13:12:26;;;;;;;8.15;1.15;;;;;;;;;;4916340;29;20032;-92
2021/10/23 13:14:52;;;;;;;1.75;1.15;;;;;;;;;;4913687;29;20033;-92
2021/10/23 13:17:18;;;;;;;1.38;0.80;;;;;;;;;;4900582;29;20083;-91
2021/10/23 13:19:44;;;;;;;2.05;1.42;;;;;;;;;;4893930;29;20101;-93
2021/10/23 13:22:10;;;;;;;1.88;1.02;;;;;;;;;;4909134;29;20044;-92
2021/10/23 13:24:36;;;;;;;3.20;0.95;;;;;;;;;;4909111;29;20043;-92
2021/10/23 13:27:03;;;;;;;3.92;1.70;;;;;;;;;;4912535;29;20699;-91
2021/10/23 13:29:29;;;;;;;4.18;1.30;;;;;;;;;;4898379;29;20068;-92
2021/10/23 13:31:56;;;;;;;1.63;1.05;;;;;;;;;;4917328;29;20115;-93
2021/10/23 13:34:22;;;;;;;3.55;0.70;;;;;;;;;;4916792;29;20024;-92
2021/10/23 13:36:48;;;;;;;1.48;0.90;;;;;;;;;;4914129;29;20032;-93
2021/10/23 13:39:14;;;;;;;2.00;0.73;;;;;;;;;;4917270;29;20054;-92
2021/10/23 13:41:40;;;;;;;0.80;0.68;;;;;;;;;;4916009;29;20032;-91
2021/10/23 13:44:06;;;;;;;1.02;0.82;;;;;;;;;;4917490;29;20028;-92
2021/10/23 13:46:32;;;;;;;1.85;1.38;;;;;;;;;;4917580;29;20127;-91
2021/10/23 13:48:59;;;;;;;1.00;0.82;;;;;;;;;;4899090;29;20481;-91
2021/10/23 13:51:25;;;;;;;5.60;1.15;;;;;;;;;;4910068;29;20101;-91
2021/10/23 13:53:51;;;;;;;1.77;0.75;;;;;;;;;;4920783;29;20075;-91
2021/10/23 13:56:17;;;;;;;6.95;1.85;;;;;;;;;;4912064;29;20035;-93
2021/10/23 13:58:43;;;;;;;3.00;0.93;;;;;;;;;;4917002;29;20631;-92
2021/10/23 14:01:09;;;;;;;2.55;1.08;;;;;;;;;;4899772;29;20047;-91
2021/10/23 14:03:36;;;;;;;3.90;1.60;;;;;;;;;;4915437;29;20172;-91
2021/10/23 14:06:02;;;;;;;1.23;0.68;;;;;;;;;;4914008;29;20032;-92
2021/10/23 14:08:28;;;;;;;0.82;0.60;;;;;;;;;;4899829;29;20402;-92
2021/10/23 14:10:54;;;;;;;2.40;1.23;;;;;;;;;;4901796;29;20044;-92
2021/10/23 14:13:20;;;;;;;1.60;0.73;;;;;;;;;;4903542;29;20048;-91
2021/10/23 14:15:46;;;;;;;3.70;0.82;;;;;;;;;;4902003;29;20024;-93
2021/10/23 14:18:12;;;;;;;1.77;1.20;;;;;;;;;;4901781;29;20557;-92
2021/10/23 14:20:39;;;;;;;2.30;0.82;;;;;;;;;;4897871;29;20052;-92
2021/10/23 14:23:11;;;;;;;1.73;0.70;;;;;;;;;;4902665;29;20028;-92
2021/10/23 14:25:38;;;;;;;1.60;1.17;;;;;;;;;;4897469;29;20523;-91
2021/10/23 14:28:11;;;;;;;1.17;0.93;;;;;;;;;;4910741;29;20036;-93
2021/10/23 14:30:37;;;;;;;1.23;1.15;;;;;;;;;;4916156;29;20691;-91
2021/10/23 14:33:03;;;;;;;3.40;1.17;;;;;;;;;;4910552;29;20390;-91
2021/10/23 14:35:29;;;;;;;8.63;1.00;;;;;;;;;;4898813;29;20024;-92
2021/10/23 14:37:55;;;;;;;19.17;1.00;;;;;;;;;;4899412;29;20501;-94
2021/10/23 14:40:21;;;;;;;1.88;1.20;;;;;;;;;;4899057;29;20039;-92
2021/10/23 14:42:47;;;;;;;4.05;1.15;;;;;;;;;;4916369;29;20032;-92
2021/10/23 14:45:13;;;;;;;2.40;0.70;;;;;;;;;;4892353;29;20052;-92
2021/10/23 14:47:39;;;;;;;1.45;0.85;;;;;;;;;;4899787;29;20032;-93
2021/10/23 14:50:06;;;;;;;1.48;0.60;;;;;;;;;;4899463;29;20147;-91
2021/10/23 14:52:32;;;;;;;1.35;0.90;;;;;;;;;;4919616;29;20556;-93